Time;durP1;ratioP1;P1;durP2;ratioP2;P2;SDS_P1;SDS_P2;PMS_P1;PMS_P2;Temp;Humidity;BMP_temperature;BMP_pressure;BME280_temperature;BME280_humidity;BME280_pressure;Samples;Min_cycle;Max_cycle;Signal;HPM_P1;HPM_P2
2023/12/03 00:00:46;;;;;;;;;;;;;;;-1.10;100.00;101869.03;4993603;28;20345;-78
2023/12/03 00:03:12;;;;;;;;;;;;;;;-1.07;100.00;101855.81;5001712;28;19929;-78
2023/12/03 00:05:37;;;;;;;;;;;;;;;-1.09;100.00;101852.31;5005402;28;20663;-78
2023/12/03 00:08:02;;;;;;;;;;;;;;;-1.01;100.00;101848.69;5000179;28;20016;-78
2023/12/03 00:10:28;;;;;;;;;;;;;;;-1.04;100.00;101849.63;5006147;28;20020;-76
2023/12/03 00:12:53;;;;;;;;;;;;;;;-1.00;100.00;101850.44;5001169;28;19997;-77
2023/12/03 00:15:18;;;;;;;;;;;;;;;-0.96;100.00;101849.50;4994074;28;20254;-77
2023/12/03 00:17:43;;;;;;;;;;;;;;;-0.95;100.00;101838.97;5012240;28;19920;-77
2023/12/03 00:20:09;;;;;;;;;;;;;;;-0.95;100.00;101838.97;5011186;28;20306;-78
2023/12/03 00:22:34;;;;;;;;;;;;;;;-0.87;100.00;101837.94;4994264;28;20394;-78
2023/12/03 00:24:59;;;;;;;;;;;;;;;-0.85;100.00;101828.25;5008858;28;19920;-77
2023/12/03 00:27:24;;;;;;;;;;;;;;;-0.86;100.00;101834.44;4995264;28;19924;-77
2023/12/03 00:29:50;;;;;;;;;;;;;;;-0.87;100.00;101833.56;5007637;28;19971;-76
2023/12/03 00:32:15;;;;;;;;;;;;;;;-0.92;100.00;101823.06;5008029;28;20146;-77
2023/12/03 00:34:40;;;;;;;;;;;;;;;-0.86;100.00;101818.59;5006160;28;20284;-76
2023/12/03 00:37:06;;;;;;;;;;;;;;;-0.88;100.00;101828.31;4991056;28;20716;-76
2023/12/03 00:39:31;;;;;;;;;;;;;;;-0.86;100.00;101834.44;5010160;28;20438;-77
2023/12/03 00:41:56;;;;;;;;;;;;;;;-0.83;100.00;101826.47;5007614;28;20344;-76
2023/12/03 00:44:21;;;;;;;;;;;;;;;-0.79;100.00;101826.41;5003485;28;20015;-77
2023/12/03 00:46:46;;;;;;;;;;;;;;;-0.79;100.00;101831.69;5005448;28;19925;-77
2023/12/03 00:49:13;;;;;;;;;;;;;;;-0.74;100.00;101822.81;5006907;28;19921;-77
2023/12/03 00:51:38;;;;;;;;;;;;;;;-0.71;100.00;101820.16;5012337;28;20324;-77
2023/12/03 00:54:03;;;;;;;;;;;;;;;-0.69;100.00;101824.53;5001286;28;19928;-77
2023/12/03 00:56:28;;;;;;;;;;;;;;;-0.61;100.00;101825.25;5003506;28;19928;-78
2023/12/03 00:58:53;;;;;;;;;;;;;;;-0.58;100.00;101827.00;4996270;28;20458;-77
2023/12/03 01:01:19;;;;;;;;;;;;;;;-0.88;100.00;101781.72;5003616;28;20412;-77
2023/12/03 01:03:44;;;;;;;;;;;;;;;-0.55;100.00;101829.59;4997515;28;19932;-77
2023/12/03 01:06:10;;;;;;;;;;;;;;;-0.56;100.00;101825.22;5005862;28;19953;-76
2023/12/03 01:08:35;;;;;;;;;;;;;;;-0.61;100.00;101827.91;5004010;28;19932;-78
2023/12/03 01:11:03;;;;;;;;;;;;;;;-0.68;100.00;101802.53;4991677;28;19967;-78
2023/12/03 01:13:28;;;;;;;;;;;;;;;-0.49;100.00;101825.97;5002458;28;20407;-76
2023/12/03 01:15:53;;;;;;;;;;;;;;;-0.38;100.00;101823.16;4991216;28;20036;-77
2023/12/03 01:18:18;;;;;;;;;;;;;;;-0.43;100.00;101833.81;4989891;28;19942;-77
2023/12/03 01:20:44;;;;;;;;;;;;;;;-0.38;100.00;101831.09;5007011;28;19928;-77
2023/12/03 01:23:09;;;;;;;;;;;;;;;-0.35;100.00;101831.03;5001274;28;19994;-78
2023/12/03 01:25:34;;;;;;;;;;;;;;;-0.28;100.00;101835.31;5011733;28;19924;-78
2023/12/03 01:27:59;;;;;;;;;;;;;;;-0.24;100.00;101839.63;5011623;28;20126;-78
2023/12/03 01:30:24;;;;;;;;;;;;;;;-0.14;100.00;101848.28;5009627;28;20019;-78
2023/12/03 01:32:50;;;;;;;;;;;;;;;-0.12;100.00;101848.25;5009475;28;19934;-78
2023/12/03 01:35:16;;;;;;;;;;;;;;;-0.15;100.00;101843.91;5005235;28;20544;-78
2023/12/03 01:37:41;;;;;;;;;;;;;;;-0.13;100.00;101850.00;5005420;28;20257;-78
2023/12/03 01:40:07;;;;;;;;;;;;;;;-0.09;100.00;101856.13;5007458;28;19921;-77
2023/12/03 01:42:33;;;;;;;;;;;;;;;-0.08;100.00;101864.00;5005008;28;19970;-77
2023/12/03 01:44:58;;;;;;;;;;;;;;;-0.02;100.00;101861.28;5003798;28;20634;-77
2023/12/03 01:47:23;;;;;;;;;;;;;;;0.01;100.00;101857.69;4989275;28;19961;-77
2023/12/03 01:49:48;;;;;;;;;;;;;;;-0.02;100.00;101868.34;5007611;28;19932;-77
2023/12/03 01:52:13;;;;;;;;;;;;;;;-0.07;100.00;101864.91;5003362;28;19968;-77
2023/12/03 01:54:39;;;;;;;;;;;;;;;-0.03;100.00;101863.94;5004508;28;20008;-77
2023/12/03 01:57:04;;;;;;;;;;;;;;;-0.02;100.00;101863.06;5005554;28;19927;-78
2023/12/03 01:59:30;;;;;;;;;;;;;;;-0.02;100.00;101865.69;5005634;28;20502;-77
2023/12/03 02:01:55;;;;;;;;;;;;;;;0.08;100.00;101867.25;5008729;28;20031;-77
2023/12/03 02:04:21;;;;;;;;;;;;;;;0.13;100.00;101867.19;5005716;28;19930;-77
2023/12/03 02:06:46;;;;;;;;;;;;;;;0.10;100.00;101867.25;5005530;28;19925;-78
2023/12/03 02:09:14;;;;;;;;;;;;;;;0.15;100.00;101870.66;5004123;28;20433;-77
2023/12/03 02:11:39;;;;;;;;;;;;;;;0.19;100.00;101869.72;5007658;28;20375;-77
2023/12/03 02:14:04;;;;;;;;;;;;;;;0.18;100.00;101865.31;4991781;28;19932;-78
2023/12/03 02:16:30;;;;;;;;;;;;;;;0.17;100.00;101873.28;5006446;28;20422;-77
2023/12/03 02:18:56;;;;;;;;;;;;;;;0.14;100.00;101877.72;4992469;28;19948;-77
2023/12/03 02:21:21;;;;;;;;;;;;;;;0.21;100.00;101880.28;5003380;28;20372;-77
2023/12/03 02:23:47;;;;;;;;;;;;;;;0.26;100.00;101874.00;4987281;28;19925;-78
2023/12/03 02:26:12;;;;;;;;;;;;;;;0.21;100.00;101883.75;4990682;28;20267;-77
2023/12/03 02:28:37;;;;;;;;;;;;;;;0.22;100.00;101884.66;5005970;28;19921;-77
2023/12/03 02:31:03;;;;;;;;;;;;;;;0.26;100.00;101886.34;5002961;28;19963;-77
2023/12/03 02:33:28;;;;;;;;;;;;;;;0.26;100.00;101889.84;5008066;28;20047;-77
2023/12/03 02:35:53;;;;;;;;;;;;;;;0.29;100.00;101894.19;5008328;28;20000;-78
2023/12/03 02:38:18;;;;;;;;;;;;;;;0.38;100.00;101890.53;5001055;28;19921;-77
2023/12/03 02:40:44;;;;;;;;;;;;;;;0.40;100.00;101886.94;5006509;28;20016;-77
2023/12/03 02:43:09;;;;;;;;;;;;;;;0.29;100.00;101888.91;4984877;28;19917;-77
2023/12/03 02:45:34;;;;;;;;;;;;;;;0.28;100.00;101890.69;5006155;28;19987;-77
2023/12/03 02:47:59;;;;;;;;;;;;;;;0.35;100.00;101887.94;5002195;28;20332;-77
2023/12/03 02:50:25;;;;;;;;;;;;;;;0.32;100.00;101890.63;5002547;28;20018;-77
2023/12/03 02:52:50;;;;;;;;;;;;;;;0.41;100.00;101887.81;5001095;28;19952;-77
2023/12/03 02:55:15;;;;;;;;;;;;;;;0.37;100.00;101896.72;5006437;28;19956;-77
2023/12/03 02:57:40;;;;;;;;;;;;;;;0.30;100.00;101898.56;4988958;28;20024;-77
2023/12/03 03:00:06;;;;;;;;;;;;;;;0.24;100.00;101894.28;4990722;28;20369;-77
2023/12/03 03:02:32;;;;;;;;;;;;;;;0.35;100.00;101895.88;5009013;28;20371;-77
2023/12/03 03:04:57;;;;;;;;;;;;;;;0.31;100.00;101899.47;5009587;28;20023;-77
2023/12/03 03:07:22;;;;;;;;;;;;;;;0.18;100.00;101894.38;5002220;28;19933;-77
2023/12/03 03:09:47;;;;;;;;;;;;;;;0.38;100.00;101909.03;4994323;28;19921;-78
2023/12/03 03:12:12;;;;;;;;;;;;;;;0.24;100.00;101901.34;5000707;28;19925;-77
2023/12/03 03:14:38;;;;;;;;;;;;;;;0.23;100.00;101912.81;4987901;28;19917;-77
2023/12/03 03:17:03;;;;;;;;;;;;;;;0.12;100.00;101910.34;5003414;28;19928;-78
2023/12/03 03:19:28;;;;;;;;;;;;;;;0.10;100.00;101909.50;5010550;28;19940;-78
2023/12/03 03:21:53;;;;;;;;;;;;;;;0.03;100.00;101915.78;5008933;28;19918;-77
2023/12/03 03:24:18;;;;;;;;;;;;;;;0.04;100.00;101915.75;5004558;23;19933;-77
2023/12/03 03:26:44;;;;;;;;;;;;;;;-0.02;100.00;101919.38;5009649;28;19964;-77
2023/12/03 03:29:09;;;;;;;;;;;;;;;-0.06;100.00;101922.09;5007962;28;20008;-77
2023/12/03 03:31:34;;;;;;;;;;;;;;;-0.03;100.00;101914.97;4993554;28;20320;-78
2023/12/03 03:33:59;;;;;;;;;;;;;;;0.25;100.00;101921.59;5006698;28;19949;-77
2023/12/03 03:36:25;;;;;;;;;;;;;;;-0.02;100.00;101922.00;5012218;28;20011;-77
2023/12/03 03:38:50;;;;;;;;;;;;;;;0.02;100.00;101920.16;4993880;28;19951;-77
2023/12/03 03:41:15;;;;;;;;;;;;;;;0.01;100.00;101931.63;4994315;28;19931;-78
2023/12/03 03:43:40;;;;;;;;;;;;;;;0.03;100.00;101924.56;4995959;28;19921;-77
2023/12/03 03:46:05;;;;;;;;;;;;;;;-0.08;100.00;101929.16;5026381;28;19933;-77
2023/12/03 03:48:31;;;;;;;;;;;;;;;-0.15;100.00;101925.75;5006403;28;19921;-78
2023/12/03 03:50:56;;;;;;;;;;;;;;;-0.21;100.00;101925.84;5010134;28;19925;-77
2023/12/03 03:53:21;;;;;;;;;;;;;;;-0.14;100.00;101927.50;5011390;28;19921;-78
2023/12/03 03:55:46;;;;;;;;;;;;;;;-0.18;100.00;101931.06;5003473;28;20023;-77
2023/12/03 03:58:12;;;;;;;;;;;;;;;-0.29;100.00;101928.59;5010684;28;20039;-77
2023/12/03 04:00:37;;;;;;;;;;;;;;;-0.33;100.00;101930.38;4995589;28;19928;-77
2023/12/03 04:03:02;;;;;;;;;;;;;;;-0.25;100.00;101934.69;5006564;28;19957;-78
2023/12/03 04:05:28;;;;;;;;;;;;;;;-0.35;100.00;101931.31;4994219;28;19926;-78
2023/12/03 04:07:53;;;;;;;;;;;;;;;-0.31;100.00;101935.66;5011014;28;19987;-78
2023/12/03 04:10:18;;;;;;;;;;;;;;;-0.34;100.00;101933.94;5012501;28;19925;-77
2023/12/03 04:12:43;;;;;;;;;;;;;;;-0.26;100.00;101930.31;4990411;28;19925;-77
2023/12/03 04:15:09;;;;;;;;;;;;;;;-0.31;100.00;101935.66;4990269;28;20371;-77
2023/12/03 04:17:34;;;;;;;;;;;;;;;-0.35;100.00;101940.09;5005954;28;19971;-77
2023/12/03 04:19:59;;;;;;;;;;;;;;;-0.26;100.00;101938.22;5010287;28;20303;-77
2023/12/03 04:22:25;;;;;;;;;;;;;;;-0.24;100.00;101939.94;5005009;28;20432;-78
2023/12/03 04:24:50;;;;;;;;;;;;;;;-0.22;100.00;101937.28;5005734;28;19933;-77
2023/12/03 04:27:15;;;;;;;;;;;;;;;-0.22;100.00;101940.78;5009386;28;19956;-77
2023/12/03 04:29:41;;;;;;;;;;;;;;;-0.22;100.00;101938.16;5025581;28;20016;-77
2023/12/03 04:32:06;;;;;;;;;;;;;;;-0.26;100.00;101935.59;5009820;28;20355;-77
2023/12/03 04:34:31;;;;;;;;;;;;;;;-0.20;100.00;101933.72;5009869;28;20402;-77
2023/12/03 04:36:56;;;;;;;;;;;;;;;-0.27;100.00;101936.47;4990250;28;19925;-77
2023/12/03 04:39:22;;;;;;;;;;;;;;;-0.49;100.00;101935.00;4989439;28;20451;-78
2023/12/03 04:41:47;;;;;;;;;;;;;;;-0.46;100.00;101942.03;5006582;28;19925;-78
2023/12/03 04:44:12;;;;;;;;;;;;;;;-0.66;100.00;101939.66;4992387;28;20018;-77
2023/12/03 04:46:41;;;;;;;;;;;;;;;-0.69;100.00;101937.06;5004586;28;19961;-77
2023/12/03 04:49:06;;;;;;;;;;;;;;;-0.82;100.00;101939.88;5005377;28;20421;-77
2023/12/03 04:51:31;;;;;;;;;;;;;;;-0.95;100.00;101944.41;4992212;28;19921;-77
2023/12/03 04:53:57;;;;;;;;;;;;;;;-1.03;100.00;101941.00;4989105;28;19925;-77
2023/12/03 04:56:22;;;;;;;;;;;;;;;-1.07;100.00;101952.44;5007468;28;19925;-77
2023/12/03 04:58:47;;;;;;;;;;;;;;;-1.12;100.00;101944.59;5002289;28;20299;-77
2023/12/03 05:01:12;;;;;;;;;;;;;;;-1.13;100.00;101947.25;4988496;28;19925;-78
2023/12/03 05:03:38;;;;;;;;;;;;;;;-1.11;100.00;101950.75;5006910;28;19964;-78
2023/12/03 05:06:04;;;;;;;;;;;;;;;-1.18;100.00;101944.66;4991337;28;19925;-77
2023/12/03 05:08:29;;;;;;;;;;;;;;;-1.20;100.00;101943.81;5003729;28;19921;-78
2023/12/03 05:10:55;;;;;;;;;;;;;;;-1.32;100.00;101939.53;4991433;28;21131;-77
2023/12/03 05:13:20;;;;;;;;;;;;;;;-1.42;100.00;101945.78;4987026;28;19929;-78
2023/12/03 05:15:45;;;;;;;;;;;;;;;-1.47;100.00;101944.97;5013340;28;19917;-78
2023/12/03 05:18:10;;;;;;;;;;;;;;;-1.50;100.00;101940.59;4988410;28;19956;-77
2023/12/03 05:20:35;;;;;;;;;;;;;;;-1.51;100.00;101941.50;5007450;28;19960;-77
2023/12/03 05:23:01;;;;;;;;;;;;;;;-1.47;100.00;101948.47;5004330;28;20020;-77
2023/12/03 05:25:26;;;;;;;;;;;;;;;-1.57;100.00;101946.81;5007858;28;19922;-77
2023/12/03 05:27:51;;;;;;;;;;;;;;;-1.54;100.00;101942.41;4991730;28;19927;-77
2023/12/03 05:30:17;;;;;;;;;;;;;;;-1.50;100.00;101935.34;5008360;28;20004;-77
2023/12/03 05:32:43;;;;;;;;;;;;;;;-1.60;100.00;101939.81;4994484;28;20207;-77
2023/12/03 05:35:09;;;;;;;;;;;;;;;-1.67;100.00;101946.03;5010626;28;19932;-78
2023/12/03 05:37:34;;;;;;;;;;;;;;;-1.70;100.00;101930.25;5008305;28;20000;-77
2023/12/03 05:39:59;;;;;;;;;;;;;;;-1.50;100.00;101937.97;5004364;28;19976;-78
2023/12/03 05:42:24;;;;;;;;;;;;;;;-1.63;100.00;101942.47;5005212;28;20044;-77
2023/12/03 05:44:49;;;;;;;;;;;;;;;-1.73;100.00;101951.38;5013127;28;20470;-77
2023/12/03 05:47:15;;;;;;;;;;;;;;;-1.62;100.00;101938.97;4996332;28;19928;-77
2023/12/03 05:49:40;;;;;;;;;;;;;;;-1.63;100.00;101945.09;5006791;28;20077;-77
2023/12/03 05:52:06;;;;;;;;;;;;;;;-1.65;100.00;101952.16;5006052;28;19964;-76
2023/12/03 05:54:31;;;;;;;;;;;;;;;-1.74;100.00;101957.50;5009825;28;19921;-76
2023/12/03 05:56:56;;;;;;;;;;;;;;;-1.64;100.00;101960.94;4994972;28;19935;-77
2023/12/03 05:59:25;;;;;;;;;;;;;;;-1.63;100.00;101954.78;5006474;28;19924;-76
2023/12/03 06:01:51;;;;;;;;;;;;;;;-1.84;100.00;101954.06;4990396;28;19964;-77
2023/12/03 06:04:16;;;;;;;;;;;;;;;-1.85;100.00;101954.94;5002996;28;20457;-76
2023/12/03 06:06:42;;;;;;;;;;;;;;;-1.75;100.00;101956.63;4989841;28;20462;-77
2023/12/03 06:09:09;;;;;;;;;;;;;;;-1.87;100.00;101964.63;4987136;28;19940;-77
2023/12/03 06:11:35;;;;;;;;;;;;;;;-1.83;100.00;101971.59;5019223;28;19921;-78
2023/12/03 06:14:00;;;;;;;;;;;;;;;-1.91;100.00;101961.13;4998558;28;20051;-78
2023/12/03 06:16:26;;;;;;;;;;;;;;;-1.75;100.00;101964.53;4992593;28;20498;-76
2023/12/03 06:18:51;;;;;;;;;;;;;;;-1.92;100.00;101971.69;5003636;28;19971;-77
2023/12/03 06:21:16;;;;;;;;;;;;;;;-1.97;100.00;101976.97;5006269;28;20264;-77
2023/12/03 06:23:41;;;;;;;;;;;;;;;-1.89;100.00;101974.31;5005103;28;20047;-77
2023/12/03 06:26:07;;;;;;;;;;;;;;;-2.02;100.00;101974.38;5025153;28;19929;-76
2023/12/03 06:28:32;;;;;;;;;;;;;;;-1.80;100.00;101971.59;5007844;28;20008;-77
2023/12/03 06:30:57;;;;;;;;;;;;;;;-1.91;100.00;101973.44;5002311;28;20047;-78
2023/12/03 06:33:22;;;;;;;;;;;;;;;-2.03;100.00;101985.78;4996605;28;19921;-77
2023/12/03 06:35:48;;;;;;;;;;;;;;;-1.91;100.00;101978.72;5023575;28;19950;-78
2023/12/03 06:38:13;;;;;;;;;;;;;;;-2.08;100.00;101982.31;5004916;28;20016;-76
2023/12/03 06:40:38;;;;;;;;;;;;;;;-1.94;100.00;101986.63;4993648;28;19935;-78
2023/12/03 06:43:03;;;;;;;;;;;;;;;-2.07;100.00;101991.09;5009737;28;20279;-76
2023/12/03 06:45:28;;;;;;;;;;;;;;;-2.18;100.00;101983.28;4996594;28;20344;-78
2023/12/03 06:47:54;;;;;;;;;;;;;;;-2.16;100.00;101985.00;4986703;28;20428;-79
2023/12/03 06:50:19;;;;;;;;;;;;;;;-2.26;100.00;101985.97;5006541;28;20397;-78
2023/12/03 06:52:44;;;;;;;;;;;;;;;-2.13;100.00;101984.13;4989688;28;20496;-79
2023/12/03 06:55:09;;;;;;;;;;;;;;;-2.12;100.00;101981.47;4993631;28;19928;-77
2023/12/03 06:57:35;;;;;;;;;;;;;;;-2.12;100.00;101989.38;4991857;28;20018;-77
2023/12/03 07:00:00;;;;;;;;;;;;;;;-2.24;100.00;101996.47;5003219;28;20007;-76
2023/12/03 07:02:25;;;;;;;;;;;;;;;-2.16;100.00;101994.66;4990070;28;19925;-78
2023/12/03 07:04:51;;;;;;;;;;;;;;;-2.26;100.00;101994.72;5002435;28;20011;-77
2023/12/03 07:07:16;;;;;;;;;;;;;;;-2.24;100.00;101989.44;5005606;28;19940;-77
2023/12/03 07:09:41;;;;;;;;;;;;;;;-2.14;100.00;101977.13;5002034;28;20275;-78
2023/12/03 07:12:07;;;;;;;;;;;;;;;-2.14;100.00;101987.63;4989639;28;20265;-78
2023/12/03 07:14:32;;;;;;;;;;;;;;;-2.17;100.00;101990.28;5003922;28;20406;-79
2023/12/03 07:16:57;;;;;;;;;;;;;;;-2.00;100.00;101992.81;5008389;28;20416;-76
2023/12/03 07:19:23;;;;;;;;;;;;;;;-1.96;100.00;101994.50;4990863;28;20572;-80
2023/12/03 07:21:48;;;;;;;;;;;;;;;-1.98;100.00;101994.53;5005706;28;20442;-80
2023/12/03 07:24:13;;;;;;;;;;;;;;;-2.12;100.00;102004.28;5006825;28;19929;-79
2023/12/03 07:26:38;;;;;;;;;;;;;;;-2.23;100.00;102009.59;4994695;28;19936;-78
2023/12/03 07:29:04;;;;;;;;;;;;;;;-2.26;100.00;101999.97;5007783;28;19932;-79
2023/12/03 07:31:30;;;;;;;;;;;;;;;-2.33;100.00;102010.53;4993299;28;19933;-79
2023/12/03 07:33:55;;;;;;;;;;;;;;;-2.29;100.00;102014.91;5008215;28;19972;-79
2023/12/03 07:36:21;;;;;;;;;;;;;;;-2.22;100.00;102018.38;5028014;28;21561;-78
2023/12/03 07:38:46;;;;;;;;;;;;;;;-2.20;100.00;102006.09;4985839;28;20433;-80
2023/12/03 07:41:12;;;;;;;;;;;;;;;-2.30;100.00;102013.16;5002892;28;19932;-79
2023/12/03 07:43:37;;;;;;;;;;;;;;;-2.29;100.00;102009.66;5005006;28;20004;-78
2023/12/03 07:46:02;;;;;;;;;;;;;;;-2.16;100.00;102013.94;4990571;28;19968;-79
2023/12/03 07:48:27;;;;;;;;;;;;;;;-2.07;100.00;102018.28;4990599;28;19921;-79
2023/12/03 07:50:52;;;;;;;;;;;;;;;-2.09;100.00;102024.44;4983381;28;19921;-78
2023/12/03 07:53:18;;;;;;;;;;;;;;;-2.04;100.00;102023.53;4985632;28;19948;-80
2023/12/03 07:55:43;;;;;;;;;;;;;;;-1.93;100.00;102025.22;5008810;28;20016;-79
2023/12/03 07:58:09;;;;;;;;;;;;;;;-1.90;100.00;102030.47;4988648;28;19982;-78
2023/12/03 08:00:35;;;;;;;;;;;;;;;-1.83;100.00;102030.41;4998251;28;22330;-79
2023/12/03 08:03:00;;;;;;;;;;;;;;;-1.76;100.00;102039.13;4989384;28;20258;-79
2023/12/03 08:05:25;;;;;;;;;;;;;;;-1.67;100.00;102043.47;5004564;28;19925;-79
2023/12/03 08:07:50;;;;;;;;;;;;;;;-1.66;100.00;102050.47;4995614;28;19960;-79
2023/12/03 08:10:15;;;;;;;;;;;;;;;-1.58;100.00;102050.41;5005758;28;20052;-79
2023/12/03 08:12:41;;;;;;;;;;;;;;;-1.48;100.00;102045.97;4998147;28;19987;-79
2023/12/03 08:15:06;;;;;;;;;;;;;;;-1.37;100.00;102050.28;5010530;28;19947;-79
2023/12/03 08:17:31;;;;;;;;;;;;;;;-1.30;100.00;102052.81;4995964;28;19921;-79
2023/12/03 08:19:56;;;;;;;;;;;;;;;-1.19;100.00;102047.50;4992001;28;19943;-79
2023/12/03 08:22:21;;;;;;;;;;;;;;;-1.15;100.00;102044.78;5009578;28;20414;-79
2023/12/03 08:24:47;;;;;;;;;;;;;;;-1.21;100.00;102053.66;4993086;28;20311;-79
2023/12/03 08:27:12;;;;;;;;;;;;;;;-1.09;100.00;102051.75;5006789;28;20550;-79
2023/12/03 08:29:38;;;;;;;;;;;;;;;-1.07;100.00;102055.25;5008080;28;19925;-79
2023/12/03 08:32:03;;;;;;;;;;;;;;;-0.99;100.00;102055.19;5004952;28;19964;-79
2023/12/03 08:34:28;;;;;;;;;;;;;;;-0.89;100.00;102056.84;5013297;28;20363;-79
2023/12/03 08:36:54;;;;;;;;;;;;;;;-0.80;100.00;102059.41;5010664;28;19967;-80
2023/12/03 08:39:19;;;;;;;;;;;;;;;-0.85;100.00;102063.84;5006318;28;20391;-79
2023/12/03 08:41:44;;;;;;;;;;;;;;;-0.64;100.00;102054.81;5009740;28;19948;-78
2023/12/03 08:44:10;;;;;;;;;;;;;;;-0.89;100.00;102058.59;5007041;28;20298;-79
2023/12/03 08:46:35;;;;;;;;;;;;;;;-0.87;100.00;102064.72;4994863;28;19964;-80
2023/12/03 08:49:00;;;;;;;;;;;;;;;-0.81;100.00;102069.94;4998884;28;20020;-79
2023/12/03 08:51:25;;;;;;;;;;;;;;;-0.84;100.00;102068.22;5013462;28;19921;-80
2023/12/03 08:53:51;;;;;;;;;;;;;;;-0.95;100.00;102064.81;5005345;28;19987;-81
2023/12/03 08:56:16;;;;;;;;;;;;;;;-0.97;100.00;102072.75;4974698;28;20295;-78
2023/12/03 08:58:41;;;;;;;;;;;;;;;-0.72;100.00;102076.88;4993215;28;20004;-79
2023/12/03 09:01:07;;;;;;;;;;;;;;;-0.93;100.00;102073.59;4994372;28;20287;-80
2023/12/03 09:03:33;;;;;;;;;;;;;;;-0.89;100.00;102085.84;4973455;28;22119;-78
2023/12/03 09:05:58;;;;;;;;;;;;;;;-0.68;100.00;102076.84;4973330;28;19925;-80
2023/12/03 09:08:23;;;;;;;;;;;;;;;-0.94;100.00;102091.19;5004329;28;20020;-80
2023/12/03 09:10:48;;;;;;;;;;;;;;;-0.94;100.00;102087.66;5001842;28;19922;-79
2023/12/03 09:13:14;;;;;;;;;;;;;;;-0.74;100.00;102089.22;4973092;28;19921;-79
2023/12/03 09:15:39;;;;;;;;;;;;;;;-0.57;100.00;102091.66;4985282;28;19921;-79
2023/12/03 09:18:04;;;;;;;;;;;;;;;-0.36;100.00;102080.84;4986864;28;19925;-79
2023/12/03 09:20:30;;;;;;;;;;;;;;;-0.21;100.00;102078.94;4970468;28;19925;-78
2023/12/03 09:22:55;;;;;;;;;;;;;;;-0.01;100.00;102079.53;4987691;28;20214;-79
2023/12/03 09:25:20;;;;;;;;;;;;;;;0.38;100.00;102081.63;4987470;28;19964;-78
2023/12/03 09:27:45;;;;;;;;;;;;;;;0.44;100.00;102084.19;4988040;28;20285;-79
2023/12/03 09:30:11;;;;;;;;;;;;;;;0.79;100.00;102086.31;5004809;28;19928;-80
2023/12/03 09:32:36;;;;;;;;;;;;;;;1.07;100.00;102078.75;4988599;28;19972;-81
2023/12/03 09:35:01;;;;;;;;;;;;;;;0.91;100.00;102090.50;5000323;28;19982;-78
2023/12/03 09:37:26;;;;;;;;;;;;;;;1.07;100.00;102085.78;4987058;28;19925;-82
2023/12/03 09:39:51;;;;;;;;;;;;;;;1.32;100.00;102084.47;4983695;28;19932;-78
2023/12/03 09:42:18;;;;;;;;;;;;;;;1.45;100.00;102084.22;5007932;28;19929;-78
2023/12/03 09:44:48;;;;;;;;;;;;;;;1.27;100.00;102070.44;4972163;28;19929;-77
2023/12/03 09:47:14;;;;;;;;;;;;;;;1.23;100.00;102087.28;4992987;28;19925;-78
2023/12/03 09:49:39;;;;;;;;;;;;;;;1.30;100.00;102065.09;4995868;28;19928;-80
2023/12/03 09:52:04;;;;;;;;;;;;;;;1.56;100.00;102073.41;4997483;28;20240;-80
2023/12/03 09:54:29;;;;;;;;;;;;;;;1.43;100.00;102075.44;4991122;28;20965;-79
2023/12/03 09:56:56;;;;;;;;;;;;;;;1.26;100.00;102078.41;4998705;28;20019;-78
2023/12/03 09:59:21;;;;;;;;;;;;;;;1.41;100.00;102072.81;4985331;28;19926;-78
2023/12/03 10:01:47;;;;;;;;;;;;;;;1.26;100.00;102066.06;4992801;28;19971;-81
2023/12/03 10:04:12;;;;;;;;;;;;;;;1.25;100.00;102048.44;4987611;28;20040;-77
2023/12/03 10:06:40;;;;;;;;;;;;;;;1.32;100.00;102073.88;4993436;28;19930;-80
2023/12/03 10:09:05;;;;;;;;;;;;;;;1.37;100.00;102068.50;4994545;28;19921;-77
2023/12/03 10:11:32;;;;;;;;;;;;;;;1.48;100.00;102069.13;5010822;28;19921;-78
2023/12/03 10:14:01;;;;;;;;;;;;;;;1.38;100.00;102072.88;5003524;28;19932;-77
2023/12/03 10:16:26;;;;;;;;;;;;;;;1.18;100.00;102067.97;4989402;28;19918;-76
2023/12/03 10:18:52;;;;;;;;;;;;;;;1.15;100.00;102060.06;4974903;28;19976;-78
2023/12/03 10:21:17;;;;;;;;;;;;;;;1.17;100.00;102061.81;4975594;28;19922;-82
2023/12/03 10:23:42;;;;;;;;;;;;;;;1.28;100.00;102055.41;5005303;28;19925;-81
2023/12/03 10:26:14;;;;;;;;;;;;;;;1.59;100.00;102023.91;4991907;28;19929;-77
2023/12/03 10:28:40;;;;;;;;;;;;;;;1.94;100.00;102055.84;4988240;28;19921;-78
2023/12/03 10:31:06;;;;;;;;;;;;;;;2.48;100.00;102048.44;4983750;28;19916;-78
2023/12/03 10:33:31;;;;;;;;;;;;;;;2.59;100.00;102043.72;4994600;28;20586;-77
2023/12/03 10:36:00;;;;;;;;;;;;;;;2.70;100.00;102048.75;4988878;28;19983;-79
2023/12/03 10:38:25;;;;;;;;;;;;;;;2.57;100.00;102040.22;4991153;28;19969;-77
2023/12/03 10:40:51;;;;;;;;;;;;;;;2.52;100.00;102043.00;4972950;28;20170;-77
2023/12/03 10:43:16;;;;;;;;;;;;;;;2.37;100.00;102041.59;5003599;28;19968;-78
2023/12/03 10:45:41;;;;;;;;;;;;;;;2.07;100.00;102035.25;4976944;28;19920;-79
2023/12/03 10:48:06;;;;;;;;;;;;;;;2.02;100.00;102037.13;4974250;28;19967;-77
2023/12/03 10:50:32;;;;;;;;;;;;;;;1.75;100.00;102031.53;4989248;28;20007;-78
2023/12/03 10:53:00;;;;;;;;;;;;;;;1.79;100.00;102031.44;5007999;28;20051;-76
2023/12/03 10:55:25;;;;;;;;;;;;;;;1.54;100.00;102023.16;4985952;28;19917;-78
2023/12/03 10:57:56;;;;;;;;;;;;;;;1.37;100.00;102028.78;4976031;28;19965;-76
2023/12/03 11:00:21;;;;;;;;;;;;;;;1.44;100.00;102018.94;4989590;28;19931;-79
2023/12/03 11:03:13;;;;;;;;;;;;;;;1.40;100.00;102030.50;4988300;28;19937;-77
2023/12/03 11:05:38;;;;;;;;;;;;;;;1.47;100.00;102024.19;4995079;28;19921;-78
2023/12/03 11:08:04;;;;;;;;;;;;;;;1.23;100.00;102018.47;4980796;28;19925;-77
2023/12/03 11:10:29;;;;;;;;;;;;;;;1.26;100.00;102020.19;4968975;28;19945;-79
2023/12/03 11:12:54;;;;;;;;;;;;;;;1.35;100.00;102001.47;4982350;28;19921;-79
2023/12/03 11:15:19;;;;;;;;;;;;;;;1.04;100.00;102002.97;4996672;28;19926;-77
2023/12/03 11:17:45;;;;;;;;;;;;;;;1.03;100.00;102009.16;4989579;28;19921;-77
2023/12/03 11:20:15;;;;;;;;;;;;;;;1.16;100.00;102011.56;4986739;28;19921;-77
2023/12/03 11:22:59;;;;;;;;;;;;;;;1.10;100.00;102004.63;4931221;28;1752197;-77
2023/12/03 11:25:27;;;;;;;;;;;;;;;1.28;100.00;101989.28;4992651;28;19967;-79
2023/12/03 11:27:52;;;;;;;;;;;;;;;1.27;100.00;101987.53;4983092;28;21794;-78
2023/12/03 11:30:34;;;;;;;;;;;;;;;1.03;100.00;101992.41;5000914;28;19930;-77
2023/12/03 11:32:59;;;;;;;;;;;;;;;1.25;100.00;101990.22;4995681;28;19932;-78
2023/12/03 11:35:25;;;;;;;;;;;;;;;1.00;100.00;101988.06;4993225;28;19926;-77
2023/12/03 11:37:50;;;;;;;;;;;;;;;1.14;100.00;101978.97;4983857;28;19960;-79
2023/12/03 11:40:16;;;;;;;;;;;;;;;1.04;100.00;101979.16;4986810;28;20016;-77
2023/12/03 11:42:45;;;;;;;;;;;;;;;0.97;100.00;101969.59;4991083;28;19927;-77
2023/12/03 11:45:21;;;;;;;;;;;;;;;1.04;100.00;101959.75;4987196;28;20372;-78
2023/12/03 11:48:06;;;;;;;;;;;;;;;0.99;100.00;101936.06;4988724;28;19925;-76
2023/12/03 11:50:33;;;;;;;;;;;;;;;1.11;100.00;101942.88;4988311;28;20453;-77
2023/12/03 11:52:58;;;;;;;;;;;;;;;1.27;100.00;101954.03;4990124;28;20104;-77
2023/12/03 11:55:23;;;;;;;;;;;;;;;1.26;100.00;101936.41;5007580;28;19944;-76
2023/12/03 11:57:48;;;;;;;;;;;;;;;1.47;100.00;101947.41;4986870;28;20004;-77
2023/12/03 12:00:14;;;;;;;;;;;;;;;1.55;100.00;101937.53;5012743;28;20437;-78
2023/12/03 12:02:39;;;;;;;;;;;;;;;1.67;100.00;101940.78;4999689;28;20331;-76
2023/12/03 12:05:04;;;;;;;;;;;;;;;1.78;100.00;101933.50;4995120;28;19917;-77
2023/12/03 12:07:29;;;;;;;;;;;;;;;1.89;100.00;101939.38;4998405;28;19940;-76
2023/12/03 12:09:55;;;;;;;;;;;;;;;2.08;100.00;101939.81;4989400;28;19929;-77
2023/12/03 12:12:20;;;;;;;;;;;;;;;1.94;100.00;101931.34;4988766;28;20593;-80
2023/12/03 12:14:45;;;;;;;;;;;;;;;1.83;100.00;101930.72;4993987;28;20387;-78
2023/12/03 12:17:11;;;;;;;;;;;;;;;1.95;100.00;101928.66;4988535;28;19929;-78
2023/12/03 12:19:43;;;;;;;;;;;;;;;1.75;100.00;101931.78;5000566;28;20027;-77
2023/12/03 12:22:09;;;;;;;;;;;;;;;1.94;100.00;101926.06;5005339;28;20314;-77